sensor_id;sensor_type;location;lat;lon;timestamp;pressure;altitude;pressure_sealevel;temperature
37536;BMP180;23379;51.554;6.736;2024-03-08T00:02:36;101286.00;;;3.90
37536;BMP180;23379;51.554;6.736;2024-03-08T00:05:03;101294.00;;;3.70
37536;BMP180;23379;51.554;6.736;2024-03-08T00:07:28;101303.00;;;3.60
37536;BMP180;23379;51.554;6.736;2024-03-08T00:09:54;101296.00;;;3.70
37536;BMP180;23379;51.554;6.736;2024-03-08T00:12:19;101292.00;;;3.70
37536;BMP180;23379;51.554;6.736;2024-03-08T00:14:45;101284.00;;;3.70
37536;BMP180;23379;51.554;6.736;2024-03-08T00:17:10;101294.00;;;3.70
37536;BMP180;23379;51.554;6.736;2024-03-08T00:19:36;101290.00;;;3.70
37536;BMP180;23379;51.554;6.736;2024-03-08T00:22:02;101293.00;;;3.60
37536;BMP180;23379;51.554;6.736;2024-03-08T00:24:27;101284.00;;;3.70
37536;BMP180;23379;51.554;6.736;2024-03-08T00:26:54;101286.00;;;3.60
37536;BMP180;23379;51.554;6.736;2024-03-08T00:29:19;101281.00;;;3.60
37536;BMP180;23379;51.554;6.736;2024-03-08T00:31:45;101279.00;;;3.60
37536;BMP180;23379;51.554;6.736;2024-03-08T00:34:10;101277.00;;;3.70
37536;BMP180;23379;51.554;6.736;2024-03-08T00:36:37;101285.00;;;3.50
37536;BMP180;23379;51.554;6.736;2024-03-08T00:39:02;101283.00;;;3.60
37536;BMP180;23379;51.554;6.736;2024-03-08T00:41:31;101279.00;;;3.60
37536;BMP180;23379;51.554;6.736;2024-03-08T00:43:56;101294.00;;;3.50
37536;BMP180;23379;51.554;6.736;2024-03-08T00:46:22;101271.00;;;3.40
37536;BMP180;23379;51.554;6.736;2024-03-08T00:48:47;101279.00;;;3.20
37536;BMP180;23379;51.554;6.736;2024-03-08T00:51:13;101273.00;;;3.40
37536;BMP180;23379;51.554;6.736;2024-03-08T00:53:40;101270.00;;;3.40
37536;BMP180;23379;51.554;6.736;2024-03-08T00:56:07;101256.00;;;3.20
37536;BMP180;23379;51.554;6.736;2024-03-08T00:58:36;101261.00;;;3.20
37536;BMP180;23379;51.554;6.736;2024-03-08T01:01:01;101258.00;;;3.30
37536;BMP180;23379;51.554;6.736;2024-03-08T01:03:27;101258.00;;;3.10
37536;BMP180;23379;51.554;6.736;2024-03-08T01:05:52;101273.00;;;3.10
37536;BMP180;23379;51.554;6.736;2024-03-08T01:08:17;101254.00;;;3.00
37536;BMP180;23379;51.554;6.736;2024-03-08T01:10:43;101256.00;;;3.10
37536;BMP180;23379;51.554;6.736;2024-03-08T01:13:08;101256.00;;;3.20
37536;BMP180;23379;51.554;6.736;2024-03-08T01:15:34;101236.00;;;3.10
37536;BMP180;23379;51.554;6.736;2024-03-08T01:18:00;101219.00;;;3.00
37536;BMP180;23379;51.554;6.736;2024-03-08T01:20:26;101239.00;;;3.10
37536;BMP180;23379;51.554;6.736;2024-03-08T01:22:52;101240.00;;;3.10
37536;BMP180;23379;51.554;6.736;2024-03-08T01:25:18;101225.00;;;3.00
37536;BMP180;23379;51.554;6.736;2024-03-08T01:27:43;101217.00;;;2.90
37536;BMP180;23379;51.554;6.736;2024-03-08T01:30:09;101230.00;;;3.00
37536;BMP180;23379;51.554;6.736;2024-03-08T01:32:34;101214.00;;;3.00
37536;BMP180;23379;51.554;6.736;2024-03-08T01:35:00;101220.00;;;3.00
37536;BMP180;23379;51.554;6.736;2024-03-08T01:37:26;101222.00;;;3.00
37536;BMP180;23379;51.554;6.736;2024-03-08T01:39:51;101207.00;;;2.90
37536;BMP180;23379;51.554;6.736;2024-03-08T01:42:17;101203.00;;;2.80
37536;BMP180;23379;51.554;6.736;2024-03-08T01:44:43;101221.00;;;2.80
37536;BMP180;23379;51.554;6.736;2024-03-08T01:47:10;101216.00;;;2.80
37536;BMP180;23379;51.554;6.736;2024-03-08T01:49:37;101205.00;;;2.70
37536;BMP180;23379;51.554;6.736;2024-03-08T01:52:02;101216.00;;;2.70
37536;BMP180;23379;51.554;6.736;2024-03-08T01:54:28;101212.00;;;2.70
37536;BMP180;23379;51.554;6.736;2024-03-08T01:56:56;101211.00;;;2.60
37536;BMP180;23379;51.554;6.736;2024-03-08T01:59:23;101218.00;;;2.60
37536;BMP180;23379;51.554;6.736;2024-03-08T02:01:50;101196.00;;;2.80
37536;BMP180;23379;51.554;6.736;2024-03-08T02:04:16;101198.00;;;2.70
37536;BMP180;23379;51.554;6.736;2024-03-08T02:06:41;101199.00;;;2.70
37536;BMP180;23379;51.554;6.736;2024-03-08T02:09:07;101185.00;;;2.60
37536;BMP180;23379;51.554;6.736;2024-03-08T02:11:34;101194.00;;;2.70
37536;BMP180;23379;51.554;6.736;2024-03-08T02:13:59;101182.00;;;2.70
37536;BMP180;23379;51.554;6.736;2024-03-08T02:16:25;101187.00;;;2.70
37536;BMP180;23379;51.554;6.736;2024-03-08T02:18:50;101189.00;;;2.50
37536;BMP180;23379;51.554;6.736;2024-03-08T02:21:17;101189.00;;;2.60
37536;BMP180;23379;51.554;6.736;2024-03-08T02:23:43;101190.00;;;2.70
37536;BMP180;23379;51.554;6.736;2024-03-08T02:26:09;101187.00;;;2.70
37536;BMP180;23379;51.554;6.736;2024-03-08T02:28:34;101179.00;;;2.80
37536;BMP180;23379;51.554;6.736;2024-03-08T02:31:00;101172.00;;;2.70
37536;BMP180;23379;51.554;6.736;2024-03-08T02:33:26;101168.00;;;2.80
37536;BMP180;23379;51.554;6.736;2024-03-08T02:35:52;101164.00;;;2.70
37536;BMP180;23379;51.554;6.736;2024-03-08T02:38:19;101178.00;;;2.60
37536;BMP180;23379;51.554;6.736;2024-03-08T02:40:46;101157.00;;;2.70
37536;BMP180;23379;51.554;6.736;2024-03-08T02:43:12;101183.00;;;2.60
37536;BMP180;23379;51.554;6.736;2024-03-08T02:45:38;101164.00;;;2.60
37536;BMP180;23379;51.554;6.736;2024-03-08T02:48:04;101164.00;;;2.50
37536;BMP180;23379;51.554;6.736;2024-03-08T02:50:31;101147.00;;;2.50
37536;BMP180;23379;51.554;6.736;2024-03-08T02:52:57;101161.00;;;2.30
37536;BMP180;23379;51.554;6.736;2024-03-08T02:55:22;101153.00;;;2.40
37536;BMP180;23379;51.554;6.736;2024-03-08T02:57:47;101154.00;;;2.40
37536;BMP180;23379;51.554;6.736;2024-03-08T03:00:13;101154.00;;;2.40
37536;BMP180;23379;51.554;6.736;2024-03-08T03:02:39;101167.00;;;2.30
37536;BMP180;23379;51.554;6.736;2024-03-08T03:05:05;101143.00;;;2.30
37536;BMP180;23379;51.554;6.736;2024-03-08T03:07:34;101157.00;;;2.30
37536;BMP180;23379;51.554;6.736;2024-03-08T03:10:00;101144.00;;;2.40
37536;BMP180;23379;51.554;6.736;2024-03-08T03:12:27;101140.00;;;2.30
37536;BMP180;23379;51.554;6.736;2024-03-08T03:14:52;101127.00;;;2.40
37536;BMP180;23379;51.554;6.736;2024-03-08T03:17:18;101130.00;;;2.40
37536;BMP180;23379;51.554;6.736;2024-03-08T03:19:43;101135.00;;;2.30
37536;BMP180;23379;51.554;6.736;2024-03-08T03:22:09;101116.00;;;2.30
37536;BMP180;23379;51.554;6.736;2024-03-08T03:24:35;101128.00;;;2.30
37536;BMP180;23379;51.554;6.736;2024-03-08T03:27:06;101122.00;;;2.20
37536;BMP180;23379;51.554;6.736;2024-03-08T03:29:37;101125.00;;;2.20
37536;BMP180;23379;51.554;6.736;2024-03-08T03:32:02;101121.00;;;2.20
37536;BMP180;23379;51.554;6.736;2024-03-08T03:34:29;101138.00;;;2.40
37536;BMP180;23379;51.554;6.736;2024-03-08T03:36:54;101118.00;;;2.30
37536;BMP180;23379;51.554;6.736;2024-03-08T03:39:21;101133.00;;;2.30
37536;BMP180;23379;51.554;6.736;2024-03-08T03:41:48;101120.00;;;2.20
37536;BMP180;23379;51.554;6.736;2024-03-08T03:44:17;101112.00;;;2.10
37536;BMP180;23379;51.554;6.736;2024-03-08T03:46:43;101133.00;;;2.20
37536;BMP180;23379;51.554;6.736;2024-03-08T03:49:12;101104.00;;;2.10
37536;BMP180;23379;51.554;6.736;2024-03-08T03:51:37;101101.00;;;2.20
37536;BMP180;23379;51.554;6.736;2024-03-08T03:54:03;101100.00;;;2.30
37536;BMP180;23379;51.554;6.736;2024-03-08T03:56:29;101111.00;;;2.20
37536;BMP180;23379;51.554;6.736;2024-03-08T03:58:55;101104.00;;;2.30
37536;BMP180;23379;51.554;6.736;2024-03-08T04:01:21;101095.00;;;2.00
37536;BMP180;23379;51.554;6.736;2024-03-08T04:03:46;101096.00;;;2.10
37536;BMP180;23379;51.554;6.736;2024-03-08T04:06:12;101090.00;;;2.10
37536;BMP180;23379;51.554;6.736;2024-03-08T04:08:37;101107.00;;;2.20
37536;BMP180;23379;51.554;6.736;2024-03-08T04:11:03;101105.00;;;2.10
37536;BMP180;23379;51.554;6.736;2024-03-08T04:13:28;101091.00;;;2.10
37536;BMP180;23379;51.554;6.736;2024-03-08T04:15:54;101100.00;;;2.10
37536;BMP180;23379;51.554;6.736;2024-03-08T04:18:19;101106.00;;;2.20
37536;BMP180;23379;51.554;6.736;2024-03-08T04:20:45;101087.00;;;2.10
37536;BMP180;23379;51.554;6.736;2024-03-08T04:23:10;101100.00;;;2.00
37536;BMP180;23379;51.554;6.736;2024-03-08T04:25:36;101104.00;;;2.10
37536;BMP180;23379;51.554;6.736;2024-03-08T04:28:01;101076.00;;;2.00
37536;BMP180;23379;51.554;6.736;2024-03-08T04:30:26;101083.00;;;1.90
37536;BMP180;23379;51.554;6.736;2024-03-08T04:32:53;101087.00;;;1.90
37536;BMP180;23379;51.554;6.736;2024-03-08T04:35:19;101070.00;;;2.00
37536;BMP180;23379;51.554;6.736;2024-03-08T04:37:46;101083.00;;;1.90
37536;BMP180;23379;51.554;6.736;2024-03-08T04:40:11;101086.00;;;1.90
37536;BMP180;23379;51.554;6.736;2024-03-08T04:42:37;101080.00;;;2.00
37536;BMP180;23379;51.554;6.736;2024-03-08T04:45:03;101071.00;;;2.00
37536;BMP180;23379;51.554;6.736;2024-03-08T04:47:29;101066.00;;;2.00
37536;BMP180;23379;51.554;6.736;2024-03-08T04:49:54;101066.00;;;2.20
37536;BMP180;23379;51.554;6.736;2024-03-08T04:52:21;101069.00;;;2.00
37536;BMP180;23379;51.554;6.736;2024-03-08T04:54:47;101073.00;;;1.90
37536;BMP180;23379;51.554;6.736;2024-03-08T04:57:12;101051.00;;;1.90
37536;BMP180;23379;51.554;6.736;2024-03-08T04:59:38;101074.00;;;1.90
37536;BMP180;23379;51.554;6.736;2024-03-08T05:02:03;101060.00;;;1.70
37536;BMP180;23379;51.554;6.736;2024-03-08T05:04:29;101052.00;;;1.70
37536;BMP180;23379;51.554;6.736;2024-03-08T05:06:54;101062.00;;;1.70
37536;BMP180;23379;51.554;6.736;2024-03-08T05:09:20;101064.00;;;1.70
37536;BMP180;23379;51.554;6.736;2024-03-08T05:11:46;101073.00;;;1.70
37536;BMP180;23379;51.554;6.736;2024-03-08T05:14:15;101058.00;;;1.70
37536;BMP180;23379;51.554;6.736;2024-03-08T05:16:46;101056.00;;;1.60
37536;BMP180;23379;51.554;6.736;2024-03-08T05:19:14;101042.00;;;1.70
37536;BMP180;23379;51.554;6.736;2024-03-08T05:21:42;101043.00;;;1.80
37536;BMP180;23379;51.554;6.736;2024-03-08T05:24:08;101050.00;;;2.00
37536;BMP180;23379;51.554;6.736;2024-03-08T05:26:35;101050.00;;;2.00
37536;BMP180;23379;51.554;6.736;2024-03-08T05:29:00;101045.00;;;1.80
37536;BMP180;23379;51.554;6.736;2024-03-08T05:31:26;101043.00;;;1.90
37536;BMP180;23379;51.554;6.736;2024-03-08T05:33:51;101030.00;;;1.80
37536;BMP180;23379;51.554;6.736;2024-03-08T05:36:16;101038.00;;;1.80
37536;BMP180;23379;51.554;6.736;2024-03-08T05:38:43;101037.00;;;1.80
37536;BMP180;23379;51.554;6.736;2024-03-08T05:41:11;101029.00;;;1.80
37536;BMP180;23379;51.554;6.736;2024-03-08T05:43:40;101023.00;;;1.60
37536;BMP180;23379;51.554;6.736;2024-03-08T05:46:05;101033.00;;;1.60
37536;BMP180;23379;51.554;6.736;2024-03-08T05:48:31;101029.00;;;1.70
37536;BMP180;23379;51.554;6.736;2024-03-08T05:51:02;101032.00;;;1.80
37536;BMP180;23379;51.554;6.736;2024-03-08T05:53:27;101022.00;;;1.90
37536;BMP180;23379;51.554;6.736;2024-03-08T05:55:56;101024.00;;;1.50
37536;BMP180;23379;51.554;6.736;2024-03-08T05:58:22;101024.00;;;1.60
37536;BMP180;23379;51.554;6.736;2024-03-08T06:00:47;101039.00;;;1.70
37536;BMP180;23379;51.554;6.736;2024-03-08T06:03:13;101015.00;;;1.70
37536;BMP180;23379;51.554;6.736;2024-03-08T06:05:38;101019.00;;;1.70
37536;BMP180;23379;51.554;6.736;2024-03-08T06:08:07;101028.00;;;1.80
37536;BMP180;23379;51.554;6.736;2024-03-08T06:10:33;101021.00;;;1.80
37536;BMP180;23379;51.554;6.736;2024-03-08T06:12:58;101024.00;;;1.80
37536;BMP180;23379;51.554;6.736;2024-03-08T06:15:23;101013.00;;;1.60
37536;BMP180;23379;51.554;6.736;2024-03-08T06:17:49;101019.00;;;1.90
37536;BMP180;23379;51.554;6.736;2024-03-08T06:20:14;101009.00;;;1.80
37536;BMP180;23379;51.554;6.736;2024-03-08T06:22:40;101022.00;;;1.90
37536;BMP180;23379;51.554;6.736;2024-03-08T06:25:12;101027.00;;;1.90
37536;BMP180;23379;51.554;6.736;2024-03-08T06:27:40;101007.00;;;2.00
37536;BMP180;23379;51.554;6.736;2024-03-08T06:30:06;101017.00;;;2.00
37536;BMP180;23379;51.554;6.736;2024-03-08T06:32:32;101001.00;;;2.10
37536;BMP180;23379;51.554;6.736;2024-03-08T06:35:06;101008.00;;;2.00
37536;BMP180;23379;51.554;6.736;2024-03-08T06:37:32;101020.00;;;2.30
37536;BMP180;23379;51.554;6.736;2024-03-08T06:39:58;101007.00;;;2.00
37536;BMP180;23379;51.554;6.736;2024-03-08T06:42:26;101002.00;;;2.10
37536;BMP180;23379;51.554;6.736;2024-03-08T06:44:51;101020.00;;;2.20
37536;BMP180;23379;51.554;6.736;2024-03-08T06:47:16;101017.00;;;2.20
37536;BMP180;23379;51.554;6.736;2024-03-08T06:49:42;101012.00;;;2.20
37536;BMP180;23379;51.554;6.736;2024-03-08T06:52:09;101005.00;;;2.30
37536;BMP180;23379;51.554;6.736;2024-03-08T06:54:35;101005.00;;;2.20
37536;BMP180;23379;51.554;6.736;2024-03-08T06:57:04;101010.00;;;2.30
37536;BMP180;23379;51.554;6.736;2024-03-08T06:59:30;100996.00;;;2.20
37536;BMP180;23379;51.554;6.736;2024-03-08T07:01:55;101008.00;;;2.30
37536;BMP180;23379;51.554;6.736;2024-03-08T07:04:21;100998.00;;;2.50
37536;BMP180;23379;51.554;6.736;2024-03-08T07:06:47;101008.00;;;2.70
37536;BMP180;23379;51.554;6.736;2024-03-08T07:09:15;101006.00;;;2.60
37536;BMP180;23379;51.554;6.736;2024-03-08T07:11:42;101005.00;;;2.80
37536;BMP180;23379;51.554;6.736;2024-03-08T07:14:07;101017.00;;;3.10
37536;BMP180;23379;51.554;6.736;2024-03-08T07:16:34;100996.00;;;2.90
37536;BMP180;23379;51.554;6.736;2024-03-08T07:19:00;100996.00;;;2.90
37536;BMP180;23379;51.554;6.736;2024-03-08T07:21:26;101001.00;;;2.90
37536;BMP180;23379;51.554;6.736;2024-03-08T07:23:51;101005.00;;;3.20
37536;BMP180;23379;51.554;6.736;2024-03-08T07:26:43;101004.00;;;3.30
37536;BMP180;23379;51.554;6.736;2024-03-08T07:29:09;101015.00;;;3.30
37536;BMP180;23379;51.554;6.736;2024-03-08T07:31:34;101013.00;;;3.40
37536;BMP180;23379;51.554;6.736;2024-03-08T07:34:02;101007.00;;;3.50
37536;BMP180;23379;51.554;6.736;2024-03-08T07:36:28;101013.00;;;3.60
37536;BMP180;23379;51.554;6.736;2024-03-08T07:38:54;100994.00;;;3.60
37536;BMP180;23379;51.554;6.736;2024-03-08T07:41:19;101008.00;;;3.80
37536;BMP180;23379;51.554;6.736;2024-03-08T07:43:45;100999.00;;;4.10
37536;BMP180;23379;51.554;6.736;2024-03-08T07:46:10;100991.00;;;4.40
37536;BMP180;23379;51.554;6.736;2024-03-08T07:48:36;100994.00;;;5.10
37536;BMP180;23379;51.554;6.736;2024-03-08T07:51:05;100993.00;;;5.50
37536;BMP180;23379;51.554;6.736;2024-03-08T07:53:30;100995.00;;;5.70
37536;BMP180;23379;51.554;6.736;2024-03-08T07:55:56;100983.00;;;6.20
37536;BMP180;23379;51.554;6.736;2024-03-08T07:58:21;100973.00;;;6.70
37536;BMP180;23379;51.554;6.736;2024-03-08T08:00:47;100984.00;;;6.30
37536;BMP180;23379;51.554;6.736;2024-03-08T08:03:12;100971.00;;;6.20
37536;BMP180;23379;51.554;6.736;2024-03-08T08:05:38;100975.00;;;6.80
37536;BMP180;23379;51.554;6.736;2024-03-08T08:08:05;100968.00;;;7.30
37536;BMP180;23379;51.554;6.736;2024-03-08T08:10:31;100976.00;;;8.10
37536;BMP180;23379;51.554;6.736;2024-03-08T08:12:58;100964.00;;;8.80
37536;BMP180;23379;51.554;6.736;2024-03-08T08:15:23;100967.00;;;9.80
37536;BMP180;23379;51.554;6.736;2024-03-08T08:17:48;100958.00;;;9.60
37536;BMP180;23379;51.554;6.736;2024-03-08T08:20:14;100956.00;;;9.80
37536;BMP180;23379;51.554;6.736;2024-03-08T08:22:41;100949.00;;;10.40
37536;BMP180;23379;51.554;6.736;2024-03-08T08:25:08;100964.00;;;10.50
37536;BMP180;23379;51.554;6.736;2024-03-08T08:27:34;100952.00;;;11.50
37536;BMP180;23379;51.554;6.736;2024-03-08T08:30:02;100937.00;;;11.80
37536;BMP180;23379;51.554;6.736;2024-03-08T08:32:33;100954.00;;;11.20
37536;BMP180;23379;51.554;6.736;2024-03-08T08:34:58;100915.00;;;11.30
37536;BMP180;23379;51.554;6.736;2024-03-08T08:37:24;100914.00;;;11.80
37536;BMP180;23379;51.554;6.736;2024-03-08T08:39:50;100935.00;;;11.40
37536;BMP180;23379;51.554;6.736;2024-03-08T08:42:16;100921.00;;;12.10
37536;BMP180;23379;51.554;6.736;2024-03-08T08:44:42;100918.00;;;12.50
37536;BMP180;23379;51.554;6.736;2024-03-08T08:47:08;100929.00;;;12.10
37536;BMP180;23379;51.554;6.736;2024-03-08T08:49:33;100924.00;;;12.50
37536;BMP180;23379;51.554;6.736;2024-03-08T08:51:59;100924.00;;;13.20
37536;BMP180;23379;51.554;6.736;2024-03-08T08:54:24;100917.00;;;12.80
37536;BMP180;23379;51.554;6.736;2024-03-08T08:56:50;100907.00;;;13.40
37536;BMP180;23379;51.554;6.736;2024-03-08T08:59:16;100917.00;;;12.80
37536;BMP180;23379;51.554;6.736;2024-03-08T09:01:45;100913.00;;;13.60
37536;BMP180;23379;51.554;6.736;2024-03-08T09:04:12;100907.00;;;12.90
37536;BMP180;23379;51.554;6.736;2024-03-08T09:06:37;100909.00;;;13.10
37536;BMP180;23379;51.554;6.736;2024-03-08T09:09:03;100903.00;;;13.10
37536;BMP180;23379;51.554;6.736;2024-03-08T09:11:30;100900.00;;;13.90
37536;BMP180;23379;51.554;6.736;2024-03-08T09:13:55;100917.00;;;15.00
37536;BMP180;23379;51.554;6.736;2024-03-08T09:16:20;100898.00;;;14.60
37536;BMP180;23379;51.554;6.736;2024-03-08T09:18:46;100888.00;;;14.40
37536;BMP180;23379;51.554;6.736;2024-03-08T09:21:13;100886.00;;;13.60
37536;BMP180;23379;51.554;6.736;2024-03-08T09:23:39;100887.00;;;14.30
37536;BMP180;23379;51.554;6.736;2024-03-08T09:26:05;100900.00;;;14.10
37536;BMP180;23379;51.554;6.736;2024-03-08T09:28:34;100885.00;;;13.70
37536;BMP180;23379;51.554;6.736;2024-03-08T09:31:03;100877.00;;;15.40
37536;BMP180;23379;51.554;6.736;2024-03-08T09:33:28;100867.00;;;15.10
37536;BMP180;23379;51.554;6.736;2024-03-08T09:35:54;100866.00;;;14.60
37536;BMP180;23379;51.554;6.736;2024-03-08T09:38:19;100863.00;;;13.70
37536;BMP180;23379;51.554;6.736;2024-03-08T09:40:45;100863.00;;;14.30
37536;BMP180;23379;51.554;6.736;2024-03-08T09:43:11;100872.00;;;15.50
37536;BMP180;23379;51.554;6.736;2024-03-08T09:45:40;100867.00;;;15.60
37536;BMP180;23379;51.554;6.736;2024-03-08T09:48:16;100858.00;;;15.70
37536;BMP180;23379;51.554;6.736;2024-03-08T09:50:43;100839.00;;;14.60
37536;BMP180;23379;51.554;6.736;2024-03-08T09:53:08;100845.00;;;15.10
37536;BMP180;23379;51.554;6.736;2024-03-08T09:55:38;100852.00;;;15.50
37536;BMP180;23379;51.554;6.736;2024-03-08T09:58:07;100847.00;;;15.40
37536;BMP180;23379;51.554;6.736;2024-03-08T10:00:52;100827.00;;;13.20
37536;BMP180;23379;51.554;6.736;2024-03-08T10:03:17;100829.00;;;13.60
37536;BMP180;23379;51.554;6.736;2024-03-08T10:05:44;100824.00;;;13.30
37536;BMP180;23379;51.554;6.736;2024-03-08T10:08:09;100830.00;;;13.70
37536;BMP180;23379;51.554;6.736;2024-03-08T10:10:36;100844.00;;;15.00
37536;BMP180;23379;51.554;6.736;2024-03-08T10:13:06;100835.00;;;14.00
37536;BMP180;23379;51.554;6.736;2024-03-08T10:15:31;100831.00;;;14.50
37536;BMP180;23379;51.554;6.736;2024-03-08T10:18:00;100830.00;;;12.40
37536;BMP180;23379;51.554;6.736;2024-03-08T10:20:27;100821.00;;;13.50
37536;BMP180;23379;51.554;6.736;2024-03-08T10:22:53;100827.00;;;14.30
37536;BMP180;23379;51.554;6.736;2024-03-08T10:25:19;100820.00;;;15.60
37536;BMP180;23379;51.554;6.736;2024-03-08T10:27:45;100804.00;;;15.40
37536;BMP180;23379;51.554;6.736;2024-03-08T10:30:13;100807.00;;;15.20
37536;BMP180;23379;51.554;6.736;2024-03-08T10:32:39;100810.00;;;15.60
37536;BMP180;23379;51.554;6.736;2024-03-08T10:35:09;100786.00;;;14.40
37536;BMP180;23379;51.554;6.736;2024-03-08T10:37:56;100797.00;;;15.50
37536;BMP180;23379;51.554;6.736;2024-03-08T10:40:26;100810.00;;;15.80
37536;BMP180;23379;51.554;6.736;2024-03-08T10:42:59;100810.00;;;15.30
37536;BMP180;23379;51.554;6.736;2024-03-08T10:45:38;100791.00;;;15.60
37536;BMP180;23379;51.554;6.736;2024-03-08T10:50:49;100800.00;;;14.20
37536;BMP180;23379;51.554;6.736;2024-03-08T10:53:17;100777.00;;;14.20
37536;BMP180;23379;51.554;6.736;2024-03-08T10:55:43;100764.00;;;15.20
37536;BMP180;23379;51.554;6.736;2024-03-08T10:58:09;100786.00;;;15.30
37536;BMP180;23379;51.554;6.736;2024-03-08T11:00:35;100764.00;;;16.10
37536;BMP180;23379;51.554;6.736;2024-03-08T11:03:03;100769.00;;;14.80
37536;BMP180;23379;51.554;6.736;2024-03-08T11:05:40;100772.00;;;16.00
37536;BMP180;23379;51.554;6.736;2024-03-08T11:11:02;100745.00;;;15.70
37536;BMP180;23379;51.554;6.736;2024-03-08T11:13:40;100748.00;;;16.00
37536;BMP180;23379;51.554;6.736;2024-03-08T11:16:10;100735.00;;;15.50
37536;BMP180;23379;51.554;6.736;2024-03-08T11:18:36;100748.00;;;15.80
37536;BMP180;23379;51.554;6.736;2024-03-08T11:21:03;100741.00;;;16.80
37536;BMP180;23379;51.554;6.736;2024-03-08T11:23:32;100731.00;;;17.00
37536;BMP180;23379;51.554;6.736;2024-03-08T11:25:59;100718.00;;;16.90
37536;BMP180;23379;51.554;6.736;2024-03-08T11:28:24;100715.00;;;16.30
37536;BMP180;23379;51.554;6.736;2024-03-08T11:33:24;100714.00;;;18.00
37536;BMP180;23379;51.554;6.736;2024-03-08T11:35:51;100713.00;;;16.60
37536;BMP180;23379;51.554;6.736;2024-03-08T11:38:17;100708.00;;;16.30
37536;BMP180;23379;51.554;6.736;2024-03-08T11:40:46;100705.00;;;16.00
37536;BMP180;23379;51.554;6.736;2024-03-08T11:43:16;100711.00;;;17.00
37536;BMP180;23379;51.554;6.736;2024-03-08T11:45:41;100698.00;;;17.20
37536;BMP180;23379;51.554;6.736;2024-03-08T11:48:06;100702.00;;;16.50
37536;BMP180;23379;51.554;6.736;2024-03-08T11:50:32;100695.00;;;17.10
37536;BMP180;23379;51.554;6.736;2024-03-08T11:53:04;100699.00;;;18.20
37536;BMP180;23379;51.554;6.736;2024-03-08T11:55:31;100689.00;;;18.90
37536;BMP180;23379;51.554;6.736;2024-03-08T11:58:04;100661.00;;;17.80
37536;BMP180;23379;51.554;6.736;2024-03-08T12:00:30;100694.00;;;18.20
37536;BMP180;23379;51.554;6.736;2024-03-08T12:03:08;100678.00;;;17.80
37536;BMP180;23379;51.554;6.736;2024-03-08T12:05:37;100643.00;;;18.00
37536;BMP180;23379;51.554;6.736;2024-03-08T12:08:03;100659.00;;;18.30
37536;BMP180;23379;51.554;6.736;2024-03-08T12:10:30;100654.00;;;17.90
37536;BMP180;23379;51.554;6.736;2024-03-08T12:16:17;100639.00;;;18.20
37536;BMP180;23379;51.554;6.736;2024-03-08T12:18:44;100655.00;;;16.80
37536;BMP180;23379;51.554;6.736;2024-03-08T12:21:11;100643.00;;;18.10
37536;BMP180;23379;51.554;6.736;2024-03-08T12:23:38;100643.00;;;18.20
37536;BMP180;23379;51.554;6.736;2024-03-08T12:26:14;100648.00;;;18.00
37536;BMP180;23379;51.554;6.736;2024-03-08T12:28:41;100635.00;;;17.00
37536;BMP180;23379;51.554;6.736;2024-03-08T12:31:08;100633.00;;;18.30
37536;BMP180;23379;51.554;6.736;2024-03-08T12:33:46;100597.00;;;17.80
37536;BMP180;23379;51.554;6.736;2024-03-08T12:36:14;100623.00;;;16.90
37536;BMP180;23379;51.554;6.736;2024-03-08T12:38:40;100625.00;;;15.60
37536;BMP180;23379;51.554;6.736;2024-03-08T12:41:05;100607.00;;;15.70
37536;BMP180;23379;51.554;6.736;2024-03-08T12:43:30;100622.00;;;16.80
37536;BMP180;23379;51.554;6.736;2024-03-08T12:45:56;100594.00;;;17.50
37536;BMP180;23379;51.554;6.736;2024-03-08T12:48:22;100601.00;;;17.30
37536;BMP180;23379;51.554;6.736;2024-03-08T12:50:47;100586.00;;;17.60
37536;BMP180;23379;51.554;6.736;2024-03-08T12:53:13;100590.00;;;16.70
37536;BMP180;23379;51.554;6.736;2024-03-08T12:55:39;100578.00;;;17.20
37536;BMP180;23379;51.554;6.736;2024-03-08T12:58:09;100586.00;;;16.70
37536;BMP180;23379;51.554;6.736;2024-03-08T13:00:34;100580.00;;;16.90
37536;BMP180;23379;51.554;6.736;2024-03-08T13:03:02;100551.00;;;17.00
37536;BMP180;23379;51.554;6.736;2024-03-08T13:05:28;100557.00;;;17.30
37536;BMP180;23379;51.554;6.736;2024-03-08T13:07:53;100560.00;;;16.50
37536;BMP180;23379;51.554;6.736;2024-03-08T13:10:20;100535.00;;;16.60
37536;BMP180;23379;51.554;6.736;2024-03-08T13:12:45;100536.00;;;16.30
37536;BMP180;23379;51.554;6.736;2024-03-08T13:15:11;100530.00;;;16.50
37536;BMP180;23379;51.554;6.736;2024-03-08T13:17:41;100563.00;;;16.60
37536;BMP180;23379;51.554;6.736;2024-03-08T13:20:08;100543.00;;;18.00
37536;BMP180;23379;51.554;6.736;2024-03-08T13:22:33;100529.00;;;17.70
37536;BMP180;23379;51.554;6.736;2024-03-08T13:24:59;100545.00;;;16.60
37536;BMP180;23379;51.554;6.736;2024-03-08T13:27:28;100521.00;;;16.30
37536;BMP180;23379;51.554;6.736;2024-03-08T13:29:53;100539.00;;;16.60
37536;BMP180;23379;51.554;6.736;2024-03-08T13:32:18;100523.00;;;16.00
37536;BMP180;23379;51.554;6.736;2024-03-08T13:34:46;100517.00;;;17.80
37536;BMP180;23379;51.554;6.736;2024-03-08T13:37:12;100522.00;;;18.10
37536;BMP180;23379;51.554;6.736;2024-03-08T13:39:41;100512.00;;;17.60
37536;BMP180;23379;51.554;6.736;2024-03-08T13:42:12;100503.00;;;18.10
37536;BMP180;23379;51.554;6.736;2024-03-08T13:44:48;100504.00;;;18.60
37536;BMP180;23379;51.554;6.736;2024-03-08T13:47:17;100498.00;;;17.90
37536;BMP180;23379;51.554;6.736;2024-03-08T13:49:43;100482.00;;;17.90
37536;BMP180;23379;51.554;6.736;2024-03-08T13:52:12;100490.00;;;18.60
37536;BMP180;23379;51.554;6.736;2024-03-08T13:54:41;100487.00;;;19.40
37536;BMP180;23379;51.554;6.736;2024-03-08T13:57:07;100479.00;;;19.30
37536;BMP180;23379;51.554;6.736;2024-03-08T13:59:33;100463.00;;;19.50
37536;BMP180;23379;51.554;6.736;2024-03-08T14:02:00;100471.00;;;19.00
37536;BMP180;23379;51.554;6.736;2024-03-08T14:04:30;100453.00;;;16.90
37536;BMP180;23379;51.554;6.736;2024-03-08T14:06:55;100456.00;;;17.70
37536;BMP180;23379;51.554;6.736;2024-03-08T14:09:29;100430.00;;;16.90
37536;BMP180;23379;51.554;6.736;2024-03-08T14:11:55;100438.00;;;16.60
37536;BMP180;23379;51.554;6.736;2024-03-08T14:14:21;100421.00;;;17.70